createdAt,value
2022-10-02T00:00:17.633Z,2.08
2022-10-02T00:01:35.220Z,2.05
2022-10-02T00:03:06.011Z,2.25
2022-10-02T00:04:15.385Z,2.10
2022-10-02T00:05:27.863Z,2.10
2022-10-02T00:06:41.971Z,2.47
2022-10-02T00:07:55.775Z,2.53
2022-10-02T00:09:00.337Z,2.72
2022-10-02T00:10:11.228Z,2.88
2022-10-02T00:11:27.048Z,2.92
2022-10-02T00:12:31.483Z,2.63
2022-10-02T00:13:45.090Z,2.75
2022-10-02T00:14:49.987Z,3.13
2022-10-02T00:15:54.192Z,2.55
2022-10-02T00:16:59.750Z,3.20
2022-10-02T00:18:13.719Z,2.97
2022-10-02T00:19:20.017Z,3.15
2022-10-02T00:20:26.892Z,2.45
2022-10-02T00:21:44.345Z,3.13
2022-10-02T00:22:53.987Z,2.33
2022-10-02T00:24:01.298Z,2.45
2022-10-02T00:25:28.641Z,2.58
2022-10-02T00:26:36.445Z,2.80
2022-10-02T00:27:56.788Z,2.63
2022-10-02T00:29:10.472Z,3.00
2022-10-02T00:30:16.550Z,2.80
2022-10-02T00:31:27.221Z,2.70
2022-10-02T00:32:45.249Z,2.13
2022-10-02T00:34:21.816Z,2.38
2022-10-02T00:36:08.750Z,2.67
2022-10-02T00:37:20.797Z,2.28
2022-10-02T00:38:44.106Z,2.53
2022-10-02T00:39:51.198Z,2.40
2022-10-02T00:41:19.163Z,2.97
2022-10-02T00:42:32.129Z,2.40
2022-10-02T00:44:15.949Z,2.60
2022-10-02T00:45:39.164Z,2.13
2022-10-02T00:46:53.121Z,2.67
2022-10-02T00:48:04.121Z,2.45
2022-10-02T00:49:36.741Z,2.05
2022-10-02T00:50:59.505Z,2.42
2022-10-02T00:52:16.324Z,2.38
2022-10-02T00:53:48.970Z,2.42
2022-10-02T00:55:02.768Z,2.20
2022-10-02T00:56:20.014Z,2.38
2022-10-02T00:57:40.108Z,2.45
2022-10-02T00:58:55.206Z,2.33
2022-10-02T01:00:08.969Z,2.95
2022-10-02T01:01:22.621Z,2.83
2022-10-02T01:02:36.631Z,2.30
2022-10-02T01:03:44.312Z,2.10
2022-10-02T01:04:48.084Z,2.20
2022-10-02T01:05:50.493Z,2.17
2022-10-02T01:06:52.684Z,2.22
2022-10-02T01:07:55.832Z,2.42
2022-10-02T01:08:58.248Z,2.05
2022-10-02T01:09:59.944Z,2.60
2022-10-02T01:11:02.703Z,2.20
2022-10-02T01:12:05.029Z,2.42
2022-10-02T01:13:08.001Z,2.30
2022-10-02T01:14:09.801Z,2.42
2022-10-02T01:15:17.134Z,2.35
2022-10-02T01:16:19.375Z,2.33
2022-10-02T01:17:22.904Z,2.30
2022-10-02T01:18:24.640Z,2.10
2022-10-02T01:19:39.619Z,1.90
2022-10-02T01:20:46.226Z,1.70
2022-10-02T01:21:53.277Z,1.88
2022-10-02T01:23:04.228Z,2.45
2022-10-02T01:24:11.558Z,2.20
2022-10-02T01:25:13.429Z,1.85
2022-10-02T01:26:15.249Z,2.17
2022-10-02T01:27:17.433Z,2.10
2022-10-02T01:28:19.741Z,2.40
2022-10-02T01:29:21.522Z,2.10
2022-10-02T01:30:23.315Z,2.10
2022-10-02T01:31:25.748Z,2.25
2022-10-02T01:32:31.681Z,2.35
2022-10-02T01:33:35.092Z,1.90
2022-10-02T01:34:37.196Z,2.10
2022-10-02T01:35:39.821Z,2.15
2022-10-02T01:36:41.759Z,2.33
2022-10-02T01:37:44.995Z,2.15
2022-10-02T01:38:49.310Z,2.22
2022-10-02T01:39:51.976Z,2.20
2022-10-02T01:40:53.833Z,2.10
2022-10-02T01:41:55.625Z,2.10
2022-10-02T01:43:00.810Z,2.03
2022-10-02T01:44:03.056Z,2.20
2022-10-02T01:45:07.222Z,2.33
2022-10-02T01:46:14.501Z,2.22
2022-10-02T01:47:24.469Z,2.10
2022-10-02T01:48:34.247Z,2.60
2022-10-02T01:49:55.423Z,2.28
2022-10-02T01:51:06.019Z,1.98
2022-10-02T01:52:33.748Z,2.40
2022-10-02T01:53:48.925Z,2.13
2022-10-02T01:55:02.915Z,2.13
2022-10-02T01:56:20.553Z,2.13
2022-10-02T01:57:45.723Z,2.05
2022-10-02T01:58:50.374Z,2.20
2022-10-02T02:00:12.896Z,2.30
2022-10-02T02:01:23.587Z,1.95
2022-10-02T02:02:52.841Z,2.17
2022-10-02T02:04:09.662Z,2.00
2022-10-02T02:05:15.615Z,2.05
2022-10-02T02:06:54.815Z,2.10
2022-10-02T02:08:16.601Z,2.20
2022-10-02T02:09:43.128Z,2.05
2022-10-02T02:11:16.347Z,1.67
2022-10-02T02:12:27.485Z,2.42
2022-10-02T02:13:35.062Z,2.28
2022-10-02T02:14:47.472Z,2.63
2022-10-02T02:15:54.931Z,1.90
2022-10-02T02:17:06.023Z,2.63
2022-10-02T02:18:32.247Z,2.40
2022-10-02T02:19:43.052Z,2.20
2022-10-02T02:20:50.411Z,2.20
2022-10-02T02:21:54.510Z,2.67
2022-10-02T02:23:01.366Z,2.00
2022-10-02T02:24:07.507Z,2.45
2022-10-02T02:25:19.462Z,2.28
2022-10-02T02:26:24.369Z,2.20
2022-10-02T02:27:29.915Z,2.08
2022-10-02T02:28:35.269Z,1.70
2022-10-02T02:29:40.515Z,2.08
2022-10-02T02:30:46.047Z,2.20
2022-10-02T02:31:52.225Z,1.95
2022-10-02T02:33:01.141Z,2.35
2022-10-02T02:34:09.845Z,2.03
2022-10-02T02:35:20.078Z,1.95
2022-10-02T02:36:26.647Z,1.92
2022-10-02T02:37:31.845Z,2.50
2022-10-02T02:38:53.274Z,2.60
2022-10-02T02:40:06.278Z,2.30
2022-10-02T02:41:20.523Z,2.40
2022-10-02T02:42:26.215Z,2.45
2022-10-02T02:43:32.586Z,2.13
2022-10-02T02:44:57.381Z,2.17
2022-10-02T02:46:10.017Z,2.15
2022-10-02T02:47:19.497Z,2.22
2022-10-02T02:48:29.777Z,1.98
2022-10-02T02:49:42.077Z,2.35
2022-10-02T02:50:49.699Z,1.88
2022-10-02T02:51:54.921Z,2.53
2022-10-02T02:53:23.439Z,2.35
2022-10-02T02:54:45.648Z,2.00
2022-10-02T02:55:49.950Z,2.28
2022-10-02T02:56:55.055Z,2.33
2022-10-02T02:58:25.474Z,2.08
2022-10-02T02:59:31.383Z,2.25
2022-10-02T03:00:33.392Z,2.38
2022-10-02T03:01:35.283Z,2.15
2022-10-02T03:02:37.122Z,2.10
2022-10-02T03:03:38.885Z,2.00
2022-10-02T03:04:40.586Z,2.22
2022-10-02T03:05:48.926Z,2.15
2022-10-02T03:06:56.458Z,1.90
2022-10-02T03:08:06.043Z,2.00
2022-10-02T03:09:16.117Z,2.05
2022-10-02T03:10:29.165Z,2.00
2022-10-02T03:11:33.877Z,2.47
2022-10-02T03:13:05.797Z,1.73
2022-10-02T03:14:44.775Z,1.92
2022-10-02T03:16:17.257Z,2.00
2022-10-02T03:17:58.261Z,2.20
2022-10-02T03:19:10.761Z,2.20
2022-10-02T03:20:21.656Z,1.70
2022-10-02T03:22:10.619Z,2.28
2022-10-02T03:23:24.427Z,1.80
2022-10-02T03:25:02.571Z,2.13
2022-10-02T03:26:12.937Z,2.05
2022-10-02T03:27:35.132Z,2.10
2022-10-02T03:28:56.352Z,2.10
2022-10-02T03:30:24.744Z,2.40
2022-10-02T03:31:30.223Z,2.20
2022-10-02T03:32:33.653Z,2.35
2022-10-02T03:33:57.049Z,2.33
2022-10-02T03:35:00.478Z,1.95
2022-10-02T03:36:03.427Z,2.25
2022-10-02T03:37:06.313Z,1.95
2022-10-02T03:38:11.791Z,1.92
2022-10-02T03:39:24.772Z,2.40
2022-10-02T03:40:27.500Z,1.98
2022-10-02T03:41:29.332Z,2.60
2022-10-02T03:42:33.373Z,2.08
2022-10-02T03:43:35.532Z,2.00
2022-10-02T03:44:38.184Z,2.20
2022-10-02T03:45:50.994Z,2.85
2022-10-02T03:46:53.583Z,1.98
2022-10-02T03:47:55.512Z,1.80
2022-10-02T03:48:57.189Z,2.10
2022-10-02T03:49:59.122Z,1.90
2022-10-02T03:51:00.797Z,2.03
2022-10-02T03:52:02.486Z,2.33
2022-10-02T03:53:15.243Z,1.83
2022-10-02T03:54:19.779Z,2.30
2022-10-02T03:55:33.365Z,2.00
2022-10-02T03:56:54.429Z,2.05
2022-10-02T03:57:56.598Z,1.77
2022-10-02T03:59:02.801Z,1.58
2022-10-02T04:00:13.563Z,2.15
2022-10-02T04:01:24.966Z,2.20
2022-10-02T04:02:36.193Z,1.80
2022-10-02T04:03:46.216Z,2.30
2022-10-02T04:05:05.765Z,2.00
2022-10-02T04:06:19.036Z,1.85
2022-10-02T04:07:30.830Z,2.00
2022-10-02T04:08:38.275Z,1.75
2022-10-02T04:09:45.812Z,2.08
2022-10-02T04:10:47.488Z,2.20
2022-10-02T04:12:07.972Z,1.92
2022-10-02T04:13:21.535Z,2.30
2022-10-02T04:14:27.455Z,2.20
2022-10-02T04:15:42.030Z,1.92
2022-10-02T04:17:02.273Z,1.90
2022-10-02T04:18:17.060Z,1.70
2022-10-02T04:19:41.365Z,1.85
2022-10-02T04:20:53.275Z,2.15
2022-10-02T04:22:00.698Z,1.92
2022-10-02T04:23:13.513Z,1.95
2022-10-02T04:24:21.889Z,1.95
2022-10-02T04:25:33.272Z,2.25
2022-10-02T04:26:40.550Z,2.03
2022-10-02T04:27:56.185Z,2.13
2022-10-02T04:29:06.562Z,1.48
2022-10-02T04:30:14.514Z,2.05
2022-10-02T04:31:16.418Z,1.60
2022-10-02T04:32:27.860Z,1.77
2022-10-02T04:33:30.148Z,1.70
2022-10-02T04:34:31.836Z,1.60
2022-10-02T04:35:45.343Z,2.20
2022-10-02T04:37:25.552Z,1.98
2022-10-02T04:38:30.047Z,1.67
2022-10-02T04:39:55.801Z,2.50
2022-10-02T04:41:06.280Z,1.73
2022-10-02T04:42:40.056Z,1.95
2022-10-02T04:43:47.498Z,2.40
2022-10-02T04:45:18.612Z,2.78
2022-10-02T04:46:29.165Z,3.65
2022-10-02T04:47:52.192Z,4.00
2022-10-02T04:49:38.868Z,3.50
2022-10-02T04:51:17.895Z,5.03
2022-10-02T04:52:47.027Z,4.28
2022-10-02T04:54:19.828Z,3.55
2022-10-02T04:55:51.559Z,3.40
2022-10-02T04:56:59.084Z,2.15
2022-10-02T04:58:28.130Z,2.20
2022-10-02T05:00:03.399Z,2.35
2022-10-02T05:01:27.451Z,2.33
2022-10-02T05:02:47.321Z,2.13
2022-10-02T05:04:19.199Z,2.50
2022-10-02T05:05:35.770Z,1.92
2022-10-02T05:07:08.533Z,2.40
2022-10-02T05:08:22.183Z,2.13
2022-10-02T05:09:30.391Z,2.10
2022-10-02T05:10:38.180Z,2.15
2022-10-02T05:12:06.326Z,2.60
2022-10-02T05:13:20.243Z,2.20
2022-10-02T05:14:59.544Z,2.15
2022-10-02T05:16:25.835Z,2.17
2022-10-02T05:17:44.577Z,2.10
2022-10-02T05:19:28.288Z,1.90
2022-10-02T05:20:59.742Z,1.88
2022-10-02T05:22:28.318Z,1.85
2022-10-02T05:24:07.712Z,1.90
2022-10-02T05:25:33.803Z,2.30
2022-10-02T05:27:33.957Z,2.20
2022-10-02T05:28:47.935Z,1.80
2022-10-02T05:30:14.816Z,2.50
2022-10-02T05:31:22.208Z,1.60
2022-10-02T05:32:54.533Z,2.28
2022-10-02T05:34:17.921Z,2.42
2022-10-02T05:35:31.935Z,2.25
2022-10-02T05:36:54.701Z,2.10
2022-10-02T05:38:33.490Z,1.98
2022-10-02T05:39:41.456Z,2.30
2022-10-02T05:40:58.849Z,2.28
2022-10-02T05:42:17.974Z,1.98
2022-10-02T05:43:44.247Z,2.20
2022-10-02T05:44:59.753Z,2.25
2022-10-02T05:46:14.805Z,2.40
2022-10-02T05:47:38.403Z,2.10
2022-10-02T05:48:52.897Z,2.00
2022-10-02T05:50:18.592Z,2.40
2022-10-02T05:51:45.828Z,2.58
2022-10-02T05:53:02.450Z,2.20
2022-10-02T05:54:27.745Z,2.00
2022-10-02T05:55:35.300Z,2.30
2022-10-02T05:56:41.739Z,2.30
2022-10-02T05:57:49.206Z,2.97
2022-10-02T05:58:53.579Z,3.00
2022-10-02T06:00:24.558Z,2.88
2022-10-02T06:01:38.915Z,4.25
2022-10-02T06:02:57.237Z,4.75
2022-10-02T06:04:28.865Z,4.10
2022-10-02T06:05:38.586Z,4.25
2022-10-02T06:06:53.678Z,5.22
2022-10-02T06:08:02.702Z,4.10
2022-10-02T06:09:31.330Z,3.95
2022-10-02T06:10:43.209Z,3.83
2022-10-02T06:11:58.204Z,3.90
2022-10-02T06:13:29.961Z,3.15
2022-10-02T06:14:40.754Z,3.55
2022-10-02T06:15:51.174Z,3.65
2022-10-02T06:17:01.319Z,3.25
2022-10-02T06:18:14.066Z,3.38
2022-10-02T06:19:27.562Z,3.03
2022-10-02T06:20:36.136Z,2.90
2022-10-02T06:21:50.911Z,3.40
2022-10-02T06:23:01.644Z,3.05
2022-10-02T06:24:10.897Z,3.13
2022-10-02T06:25:21.022Z,2.92
2022-10-02T06:26:35.114Z,3.22
2022-10-02T06:27:52.756Z,3.13
2022-10-02T06:29:02.438Z,2.70
2022-10-02T06:30:09.438Z,2.60
2022-10-02T06:31:18.449Z,2.50
2022-10-02T06:32:38.776Z,3.20
2022-10-02T06:33:40.538Z,2.45
2022-10-02T06:34:45.788Z,2.97
2022-10-02T06:35:52.787Z,3.00
2022-10-02T06:37:09.285Z,2.60
2022-10-02T06:38:35.625Z,3.22
2022-10-02T06:39:54.446Z,3.13
2022-10-02T06:41:14.229Z,2.90
2022-10-02T06:42:33.836Z,3.30
2022-10-02T06:43:58.151Z,2.90
2022-10-02T06:45:10.370Z,2.88
2022-10-02T06:46:53.775Z,3.05
2022-10-02T06:48:19.277Z,3.30
2022-10-02T06:49:31.212Z,2.83
2022-10-02T06:51:00.198Z,2.95
2022-10-02T06:52:12.918Z,2.70
2022-10-02T06:53:27.365Z,3.47
2022-10-02T06:54:46.821Z,3.78
2022-10-02T06:56:09.884Z,4.05
2022-10-02T06:57:33.196Z,4.38
2022-10-02T06:59:04.712Z,3.78
2022-10-02T07:00:16.419Z,5.00
2022-10-02T07:01:33.191Z,5.63
2022-10-02T07:02:56.605Z,4.10
2022-10-02T07:04:04.457Z,3.22
2022-10-02T07:06:03.293Z,3.25
2022-10-02T07:07:13.863Z,3.53
2022-10-02T07:08:41.974Z,3.90
2022-10-02T07:10:04.326Z,3.67
2022-10-02T07:11:27.168Z,4.18
2022-10-02T07:13:14.060Z,3.33
2022-10-02T07:14:31.882Z,3.03
2022-10-02T07:16:09.231Z,2.83
2022-10-02T07:17:30.487Z,3.13
2022-10-02T07:18:50.330Z,2.90
2022-10-02T07:20:05.600Z,2.83
2022-10-02T07:21:39.103Z,2.88
2022-10-02T07:23:01.949Z,2.72
2022-10-02T07:24:41.892Z,2.63
2022-10-02T07:26:07.939Z,2.67
2022-10-02T07:27:26.247Z,2.72
2022-10-02T07:28:27.924Z,2.58
2022-10-02T07:29:37.809Z,2.92
2022-10-02T07:30:56.649Z,3.28
2022-10-02T07:32:11.782Z,3.05
2022-10-02T07:33:44.704Z,2.88
2022-10-02T07:34:51.648Z,3.33
2022-10-02T07:36:30.825Z,3.17
2022-10-02T07:37:40.869Z,3.42
2022-10-02T07:38:51.440Z,6.47
2022-10-02T07:40:02.469Z,3.30
2022-10-02T07:41:10.368Z,3.50
2022-10-02T07:42:35.734Z,3.08
2022-10-02T07:43:40.445Z,3.20
2022-10-02T07:45:00.792Z,3.08
2022-10-02T07:46:32.710Z,2.85
2022-10-02T07:47:43.285Z,3.00
2022-10-02T07:49:15.262Z,3.17
2022-10-02T07:50:31.976Z,3.22
2022-10-02T07:51:50.117Z,3.40
2022-10-02T07:53:08.564Z,3.05
2022-10-02T07:54:20.413Z,3.00
2022-10-02T07:55:24.747Z,3.05
2022-10-02T07:56:27.347Z,2.80
2022-10-02T07:57:54.077Z,2.85
2022-10-02T07:59:02.399Z,2.50
2022-10-02T08:00:11.671Z,3.10
2022-10-02T08:01:20.063Z,3.13
2022-10-02T08:02:49.276Z,3.10
2022-10-02T08:03:54.984Z,3.50
2022-10-02T08:05:04.846Z,4.40
2022-10-02T08:06:07.308Z,4.22
2022-10-02T08:07:09.049Z,6.78
2022-10-02T08:08:29.908Z,5.25
2022-10-02T08:09:52.179Z,5.13
2022-10-02T08:11:21.152Z,3.45
2022-10-02T08:12:32.177Z,3.40
2022-10-02T08:13:52.578Z,3.50
2022-10-02T08:14:55.822Z,3.90
2022-10-02T08:15:57.673Z,3.58
2022-10-02T08:17:06.777Z,3.75
2022-10-02T08:18:33.549Z,3.42
2022-10-02T08:19:41.538Z,4.22
2022-10-02T08:20:46.429Z,3.75
2022-10-02T08:22:01.742Z,4.85
2022-10-02T08:23:13.328Z,3.80
2022-10-02T08:24:22.433Z,3.88
2022-10-02T08:25:43.127Z,3.78
2022-10-02T08:26:57.701Z,4.93
2022-10-02T08:28:10.283Z,5.18
2022-10-02T08:29:24.200Z,4.32
2022-10-02T08:30:25.972Z,4.65
2022-10-02T08:31:27.865Z,4.03
2022-10-02T08:32:34.995Z,4.47
2022-10-02T08:33:39.061Z,3.92
2022-10-02T08:34:42.217Z,4.38
2022-10-02T08:36:16.491Z,4.88
2022-10-02T08:37:24.324Z,4.68
2022-10-02T08:38:44.796Z,4.63
2022-10-02T08:40:03.668Z,4.50
2022-10-02T08:41:36.781Z,4.53
2022-10-02T08:43:19.467Z,4.53
2022-10-02T08:44:56.323Z,4.28
2022-10-02T08:46:21.465Z,3.85
2022-10-02T08:47:41.965Z,3.70
2022-10-02T08:49:04.146Z,3.90
2022-10-02T08:50:43.023Z,3.70
2022-10-02T08:52:10.451Z,2.90
2022-10-02T08:53:18.311Z,3.00
2022-10-02T08:54:22.927Z,4.25
2022-10-02T08:56:03.400Z,3.75
2022-10-02T08:57:54.451Z,3.60
2022-10-02T08:59:26.031Z,2.95
2022-10-02T09:00:47.083Z,4.22
2022-10-02T09:02:09.423Z,4.00
2022-10-02T09:03:48.885Z,3.92
2022-10-02T09:05:22.887Z,2.72
2022-10-02T09:06:45.619Z,2.30
2022-10-02T09:08:26.249Z,2.42
2022-10-02T09:09:42.951Z,2.50
2022-10-02T09:11:04.001Z,2.60
2022-10-02T09:12:44.121Z,2.22
2022-10-02T09:14:10.140Z,2.75
2022-10-02T09:15:15.401Z,2.58
2022-10-02T09:16:54.709Z,2.40
2022-10-02T09:18:25.845Z,2.53
2022-10-02T09:19:48.594Z,2.63
2022-10-02T09:21:13.963Z,2.80
2022-10-02T09:22:40.709Z,3.22
2022-10-02T09:24:29.999Z,2.65
2022-10-02T09:25:37.541Z,2.20
2022-10-02T09:27:09.973Z,2.90
2022-10-02T09:28:33.695Z,3.40
2022-10-02T09:29:38.314Z,2.95
2022-10-02T09:30:47.899Z,3.03
2022-10-02T09:32:17.339Z,2.75
2022-10-02T09:33:31.002Z,3.63
2022-10-02T09:35:21.015Z,3.50
2022-10-02T09:36:31.530Z,2.70
2022-10-02T09:38:04.163Z,2.40
2022-10-02T09:39:43.353Z,2.80
2022-10-02T09:41:04.445Z,2.90
2022-10-02T09:42:09.089Z,2.88
2022-10-02T09:43:34.736Z,2.50
2022-10-02T09:44:46.091Z,2.90
2022-10-02T09:46:12.726Z,2.60
2022-10-02T09:47:35.619Z,2.70
2022-10-02T09:49:03.100Z,2.47
2022-10-02T09:50:32.334Z,2.40
2022-10-02T09:51:46.183Z,2.40
2022-10-02T09:53:05.989Z,2.33
2022-10-02T09:54:28.806Z,2.70
2022-10-02T09:56:08.576Z,2.60
2022-10-02T09:57:50.446Z,2.90
2022-10-02T09:59:18.452Z,2.88
2022-10-02T10:00:22.834Z,2.90
2022-10-02T10:01:40.700Z,2.65
2022-10-02T10:02:54.101Z,3.38
2022-10-02T10:04:09.167Z,2.58
2022-10-02T10:05:26.126Z,3.13
2022-10-02T10:06:55.656Z,3.45
2022-10-02T10:08:13.147Z,3.03
2022-10-02T10:09:17.783Z,3.17
2022-10-02T10:10:40.871Z,3.60
2022-10-02T10:12:07.119Z,3.40
2022-10-02T10:13:27.132Z,3.70
2022-10-02T10:14:48.178Z,3.13
2022-10-02T10:16:19.174Z,2.78
2022-10-02T10:17:39.348Z,3.50
2022-10-02T10:19:02.456Z,2.70
2022-10-02T10:20:16.464Z,2.90
2022-10-02T10:21:58.030Z,2.72
2022-10-02T10:23:20.986Z,2.28
2022-10-02T10:24:40.866Z,2.33
2022-10-02T10:26:02.788Z,2.28
2022-10-02T10:27:34.482Z,2.10
2022-10-02T10:29:21.254Z,2.20
2022-10-02T10:30:34.835Z,2.28
2022-10-02T10:32:14.090Z,2.40
2022-10-02T10:33:34.447Z,2.33
2022-10-02T10:34:54.165Z,2.60
2022-10-02T10:36:42.195Z,4.45
2022-10-02T10:38:28.324Z,2.50
2022-10-02T10:39:36.027Z,2.60
2022-10-02T10:41:03.563Z,2.22
2022-10-02T10:42:20.825Z,2.38
2022-10-02T10:43:57.015Z,3.08
2022-10-02T10:45:29.960Z,2.60
2022-10-02T10:46:41.008Z,2.70
2022-10-02T10:48:05.715Z,2.38
2022-10-02T10:49:25.335Z,1.98
2022-10-02T10:50:56.118Z,2.00
2022-10-02T10:52:29.600Z,3.00
2022-10-02T10:54:04.917Z,2.15
2022-10-02T10:55:43.651Z,1.95
2022-10-02T10:56:55.860Z,2.40
2022-10-02T10:58:15.079Z,2.22
2022-10-02T10:59:43.495Z,2.10
2022-10-02T11:00:48.114Z,2.42
2022-10-02T11:02:13.897Z,2.65
2022-10-02T11:03:52.254Z,2.42
2022-10-02T11:05:42.166Z,2.40
2022-10-02T11:07:18.044Z,2.17
2022-10-02T11:08:54.317Z,2.00
2022-10-02T11:10:05.185Z,2.00
2022-10-02T11:11:19.036Z,2.20
2022-10-02T11:12:42.266Z,2.33
2022-10-02T11:14:21.902Z,2.38
2022-10-02T11:15:44.787Z,1.95
2022-10-02T11:17:17.090Z,2.47
2022-10-02T11:18:56.081Z,2.63
2022-10-02T11:20:34.798Z,2.40
2022-10-02T11:21:48.932Z,2.47
2022-10-02T11:23:09.848Z,2.53
2022-10-02T11:24:47.575Z,2.90
2022-10-02T11:25:55.236Z,2.55
2022-10-02T11:27:05.481Z,3.00
2022-10-02T11:28:09.950Z,2.22
2022-10-02T11:29:35.738Z,2.15
2022-10-02T11:30:46.651Z,1.80
2022-10-02T11:32:14.265Z,2.10
2022-10-02T11:33:33.633Z,2.00
2022-10-02T11:35:12.226Z,1.80
2022-10-02T11:36:30.055Z,1.50
2022-10-02T11:37:51.942Z,1.50
2022-10-02T11:39:13.940Z,1.95
2022-10-02T11:40:34.811Z,1.35
2022-10-02T11:42:05.610Z,1.40
2022-10-02T11:43:14.956Z,1.23
2022-10-02T11:44:23.134Z,1.30
2022-10-02T11:45:38.398Z,1.33
2022-10-02T11:47:21.401Z,1.42
2022-10-02T11:48:36.136Z,1.40
2022-10-02T11:50:19.159Z,1.10
2022-10-02T11:52:08.753Z,1.30
2022-10-02T11:53:47.916Z,1.27
2022-10-02T11:55:22.319Z,1.45
2022-10-02T11:56:27.173Z,1.58
2022-10-02T11:58:00.952Z,1.63
2022-10-02T11:59:33.746Z,1.38
2022-10-02T12:00:56.934Z,1.33
2022-10-02T12:02:16.970Z,1.20
2022-10-02T12:03:24.888Z,1.25
2022-10-02T12:04:49.752Z,1.30
2022-10-02T12:05:57.305Z,2.13
2022-10-02T12:07:06.627Z,1.33
2022-10-02T12:08:24.491Z,1.50
2022-10-02T12:09:48.717Z,1.40
2022-10-02T12:11:08.058Z,1.92
2022-10-02T12:12:27.812Z,1.63
2022-10-02T12:13:32.739Z,1.55
2022-10-02T12:15:00.586Z,1.73
2022-10-02T12:16:29.585Z,1.40
2022-10-02T12:17:53.203Z,1.48
2022-10-02T12:18:54.893Z,1.20
2022-10-02T12:20:24.365Z,1.45
2022-10-02T12:22:06.988Z,1.27
2022-10-02T12:23:39.272Z,2.00
2022-10-02T12:25:29.928Z,1.30
2022-10-02T12:26:59.254Z,1.20
2022-10-02T12:28:20.203Z,1.30
2022-10-02T12:30:00.433Z,1.10
2022-10-02T12:31:20.915Z,1.52
2022-10-02T12:32:40.738Z,1.25
2022-10-02T12:34:13.203Z,1.30
2022-10-02T12:35:34.102Z,1.00
2022-10-02T12:36:56.564Z,1.60
2022-10-02T12:38:22.994Z,1.10
2022-10-02T12:39:30.836Z,1.00
2022-10-02T12:40:56.530Z,1.50
2022-10-02T12:42:26.733Z,3.15
2022-10-02T12:43:44.220Z,1.88
2022-10-02T12:45:11.597Z,2.85
2022-10-02T12:46:17.317Z,2.10
2022-10-02T12:47:19.115Z,2.75
2022-10-02T12:48:55.080Z,2.50
2022-10-02T12:50:17.292Z,1.80
2022-10-02T12:51:46.384Z,1.50
2022-10-02T12:53:09.764Z,1.05
2022-10-02T12:54:17.971Z,1.00
2022-10-02T12:55:46.983Z,1.25
2022-10-02T12:57:41.202Z,1.10
2022-10-02T12:59:11.166Z,1.40
2022-10-02T13:00:21.136Z,1.20
2022-10-02T13:01:53.342Z,3.53
2022-10-02T13:03:02.133Z,1.67
2022-10-02T13:04:22.617Z,2.42
2022-10-02T13:05:46.771Z,1.98
2022-10-02T13:06:57.538Z,2.10
2022-10-02T13:08:11.658Z,2.30
2022-10-02T13:09:23.597Z,2.20
2022-10-02T13:10:37.950Z,2.40
2022-10-02T13:12:07.152Z,2.95
2022-10-02T13:13:38.950Z,2.08
2022-10-02T13:15:07.749Z,1.88
2022-10-02T13:16:54.712Z,1.02
2022-10-02T13:17:59.311Z,1.20
2022-10-02T13:19:04.578Z,0.90
2022-10-02T13:20:21.117Z,0.90
2022-10-02T13:21:47.428Z,0.82
2022-10-02T13:22:59.546Z,1.10
2022-10-02T13:24:32.188Z,1.10
2022-10-02T13:25:48.754Z,0.90
2022-10-02T13:26:58.655Z,1.02
2022-10-02T13:28:24.986Z,0.90
2022-10-02T13:29:42.854Z,1.25
2022-10-02T13:30:59.867Z,1.20
2022-10-02T13:32:23.417Z,0.88
2022-10-02T13:33:41.104Z,1.00
2022-10-02T13:35:05.956Z,0.80
2022-10-02T13:36:07.686Z,1.23
2022-10-02T13:37:38.458Z,1.23
2022-10-02T13:38:43.345Z,1.23
2022-10-02T13:40:17.225Z,1.02
2022-10-02T13:41:50.951Z,1.20
2022-10-02T13:43:06.894Z,1.08
2022-10-02T13:44:44.648Z,1.02
2022-10-02T13:46:07.565Z,0.90
2022-10-02T13:47:38.485Z,0.98
2022-10-02T13:48:55.025Z,1.20
2022-10-02T13:50:34.640Z,1.20
2022-10-02T13:51:50.945Z,1.00
2022-10-02T13:53:01.804Z,0.82
2022-10-02T13:54:15.970Z,0.95
2022-10-02T13:55:29.103Z,0.90
2022-10-02T13:56:39.946Z,1.10
2022-10-02T13:58:12.071Z,1.30
2022-10-02T13:59:41.654Z,1.00
2022-10-02T14:01:05.069Z,1.05
2022-10-02T14:02:42.506Z,1.00
2022-10-02T14:03:54.464Z,0.80
2022-10-02T14:05:15.210Z,0.75
2022-10-02T14:06:27.142Z,1.15
2022-10-02T14:07:40.953Z,0.80
2022-10-02T14:09:22.101Z,1.02
2022-10-02T14:10:38.727Z,0.70
2022-10-02T14:12:13.951Z,0.93
2022-10-02T14:14:13.203Z,0.90
2022-10-02T14:15:52.054Z,0.80
2022-10-02T14:17:24.971Z,0.85
2022-10-02T14:18:35.319Z,0.60
2022-10-02T14:19:58.641Z,1.40
2022-10-02T14:21:31.310Z,0.77
2022-10-02T14:22:35.775Z,1.55
2022-10-02T14:23:58.672Z,0.80
2022-10-02T14:25:18.546Z,2.45
2022-10-02T14:26:54.127Z,2.42
2022-10-02T14:28:25.446Z,1.02
2022-10-02T14:29:41.625Z,0.80
2022-10-02T14:30:55.348Z,0.80
2022-10-02T14:31:57.008Z,0.70
2022-10-02T14:33:23.086Z,0.63
2022-10-02T14:34:31.155Z,0.80
2022-10-02T14:35:52.004Z,0.90
2022-10-02T14:37:30.444Z,0.65
2022-10-02T14:39:09.555Z,0.82
2022-10-02T14:40:21.576Z,0.80
2022-10-02T14:41:49.367Z,0.80
2022-10-02T14:43:02.090Z,0.70
2022-10-02T14:44:34.703Z,0.63
2022-10-02T14:46:17.987Z,0.60
2022-10-02T14:47:37.661Z,0.90
2022-10-02T14:48:48.402Z,1.77
2022-10-02T14:49:59.005Z,1.00
2022-10-02T14:51:38.775Z,0.80
2022-10-02T14:52:56.003Z,0.70
2022-10-02T14:54:25.550Z,0.80
2022-10-02T14:55:54.591Z,0.88
2022-10-02T14:57:23.023Z,0.80
2022-10-02T14:58:47.928Z,0.85
2022-10-02T15:00:01.641Z,1.00
2022-10-02T15:01:23.599Z,1.10
2022-10-02T15:02:56.618Z,1.00
2022-10-02T15:04:23.885Z,1.20
2022-10-02T15:05:31.653Z,0.90
2022-10-02T15:06:40.089Z,1.00
2022-10-02T15:07:42.409Z,1.15
2022-10-02T15:08:54.897Z,1.80
2022-10-02T15:10:16.273Z,1.40
2022-10-02T15:11:29.916Z,1.27
2022-10-02T15:12:43.742Z,1.40
2022-10-02T15:13:51.282Z,2.45
2022-10-02T15:15:21.137Z,2.17
2022-10-02T15:16:53.689Z,1.50
2022-10-02T15:18:25.108Z,1.10
2022-10-02T15:19:26.988Z,0.80
2022-10-02T15:20:40.776Z,1.00
2022-10-02T15:21:58.353Z,0.80
2022-10-02T15:23:38.969Z,0.82
2022-10-02T15:24:44.398Z,0.90
2022-10-02T15:25:58.968Z,1.00
2022-10-02T15:27:22.831Z,0.60
2022-10-02T15:28:52.426Z,0.70
2022-10-02T15:30:17.952Z,0.80
2022-10-02T15:31:32.590Z,0.88
2022-10-02T15:32:52.490Z,0.70
2022-10-02T15:34:10.626Z,0.60
2022-10-02T15:35:36.678Z,0.90
2022-10-02T15:37:12.788Z,0.70
2022-10-02T15:38:28.563Z,0.90
2022-10-02T15:40:03.070Z,0.90
2022-10-02T15:41:16.789Z,0.77
2022-10-02T15:42:50.264Z,0.70
2022-10-02T15:44:06.757Z,0.70
2022-10-02T15:45:20.215Z,0.60
2022-10-02T15:46:55.734Z,0.88
2022-10-02T15:48:08.167Z,0.80
2022-10-02T15:49:26.126Z,0.90
2022-10-02T15:50:51.626Z,0.90
2022-10-02T15:52:01.927Z,1.10
2022-10-02T15:53:22.475Z,1.00
2022-10-02T15:54:54.734Z,0.95
2022-10-02T15:56:17.273Z,0.80
2022-10-02T15:57:34.289Z,1.00
2022-10-02T15:58:58.599Z,1.02
2022-10-02T16:00:19.153Z,1.10
2022-10-02T16:01:26.822Z,1.02
2022-10-02T16:02:37.958Z,0.80
2022-10-02T16:03:50.899Z,0.93
2022-10-02T16:05:30.355Z,1.00
2022-10-02T16:06:53.200Z,1.45
2022-10-02T16:08:32.571Z,1.60
2022-10-02T16:09:39.559Z,1.50
2022-10-02T16:11:06.577Z,1.38
2022-10-02T16:12:41.796Z,1.30
2022-10-02T16:14:00.144Z,0.95
2022-10-02T16:15:23.665Z,1.45
2022-10-02T16:16:39.571Z,1.08
2022-10-02T16:18:14.700Z,1.00
2022-10-02T16:19:40.659Z,1.33
2022-10-02T16:21:07.049Z,1.38
2022-10-02T16:22:30.520Z,1.33
2022-10-02T16:24:07.602Z,1.15
2022-10-02T16:25:17.011Z,1.00
2022-10-02T16:27:00.204Z,0.90
2022-10-02T16:28:49.209Z,1.10
2022-10-02T16:30:05.468Z,1.45
2022-10-02T16:31:31.869Z,1.30
2022-10-02T16:32:49.468Z,1.30
2022-10-02T16:34:01.331Z,1.20
2022-10-02T16:35:16.682Z,1.10
2022-10-02T16:36:18.968Z,1.15
2022-10-02T16:37:38.968Z,1.20
2022-10-02T16:38:43.660Z,1.30
2022-10-02T16:40:03.714Z,1.15
2022-10-02T16:41:24.571Z,1.10
2022-10-02T16:42:35.237Z,0.93
2022-10-02T16:43:54.254Z,1.20
2022-10-02T16:45:25.810Z,1.08
2022-10-02T16:46:46.400Z,1.02
2022-10-02T16:47:54.591Z,1.10
2022-10-02T16:49:03.206Z,1.13
2022-10-02T16:50:28.085Z,1.58
2022-10-02T16:51:53.523Z,1.23
2022-10-02T16:53:04.713Z,1.23
2022-10-02T16:54:18.827Z,1.42
2022-10-02T16:55:49.737Z,1.38
2022-10-02T16:56:54.573Z,1.50
2022-10-02T16:58:18.324Z,1.40
2022-10-02T16:59:40.465Z,1.98
2022-10-02T17:00:54.303Z,1.20
2022-10-02T17:02:17.767Z,1.70
2022-10-02T17:03:39.497Z,1.70
2022-10-02T17:05:12.911Z,1.52
2022-10-02T17:06:24.453Z,1.70
2022-10-02T17:07:55.011Z,1.40
2022-10-02T17:09:18.520Z,1.48
2022-10-02T17:10:38.039Z,1.55
2022-10-02T17:12:14.057Z,1.70
2022-10-02T17:13:33.184Z,1.65
2022-10-02T17:14:54.917Z,1.35
2022-10-02T17:16:07.531Z,1.60
2022-10-02T17:17:39.806Z,1.52
2022-10-02T17:18:50.667Z,1.83
2022-10-02T17:20:18.903Z,1.58
2022-10-02T17:21:31.718Z,1.80
2022-10-02T17:22:57.395Z,1.85
2022-10-02T17:24:32.907Z,1.50
2022-10-02T17:25:55.491Z,1.83
2022-10-02T17:27:17.443Z,1.33
2022-10-02T17:28:19.383Z,1.52